sensor_id;sensor_type;location;lat;lon;timestamp;P1;durP1;ratioP1;P2;durP2;ratioP2
16403;SDS011;8311;50.158;8.642;2023-03-01T00:02:41;3.92;;;2.42;;
16403;SDS011;8311;50.158;8.642;2023-03-01T00:05:34;4.15;;;2.58;;
16403;SDS011;8311;50.158;8.642;2023-03-01T00:08:29;4.78;;;2.55;;
16403;SDS011;8311;50.158;8.642;2023-03-01T00:11:25;4.47;;;2.45;;
16403;SDS011;8311;50.158;8.642;2023-03-01T00:14:20;4.45;;;2.50;;
16403;SDS011;8311;50.158;8.642;2023-03-01T00:17:13;4.50;;;2.28;;
16403;SDS011;8311;50.158;8.642;2023-03-01T00:20:07;4.15;;;2.55;;
16403;SDS011;8311;50.158;8.642;2023-03-01T00:23:01;4.38;;;2.10;;
16403;SDS011;8311;50.158;8.642;2023-03-01T00:25:56;4.28;;;2.40;;
16403;SDS011;8311;50.158;8.642;2023-03-01T00:28:50;3.60;;;2.15;;
16403;SDS011;8311;50.158;8.642;2023-03-01T00:31:43;3.72;;;2.20;;
16403;SDS011;8311;50.158;8.642;2023-03-01T00:34:37;3.95;;;2.55;;
16403;SDS011;8311;50.158;8.642;2023-03-01T00:37:30;4.25;;;2.70;;
16403;SDS011;8311;50.158;8.642;2023-03-01T00:40:22;3.83;;;2.20;;
16403;SDS011;8311;50.158;8.642;2023-03-01T00:43:18;4.07;;;2.45;;
16403;SDS011;8311;50.158;8.642;2023-03-01T00:46:12;4.15;;;2.25;;
16403;SDS011;8311;50.158;8.642;2023-03-01T00:49:06;4.40;;;2.30;;
16403;SDS011;8311;50.158;8.642;2023-03-01T00:51:59;3.30;;;2.10;;
16403;SDS011;8311;50.158;8.642;2023-03-01T00:54:52;3.22;;;1.85;;
16403;SDS011;8311;50.158;8.642;2023-03-01T00:57:45;3.80;;;2.28;;
16403;SDS011;8311;50.158;8.642;2023-03-01T01:00:40;4.00;;;2.30;;
16403;SDS011;8311;50.158;8.642;2023-03-01T01:03:33;2.83;;;1.90;;
16403;SDS011;8311;50.158;8.642;2023-03-01T01:06:27;3.33;;;2.00;;
16403;SDS011;8311;50.158;8.642;2023-03-01T01:09:21;3.55;;;2.30;;
16403;SDS011;8311;50.158;8.642;2023-03-01T01:12:15;3.20;;;2.20;;
16403;SDS011;8311;50.158;8.642;2023-03-01T01:15:08;3.33;;;2.35;;
16403;SDS011;8311;50.158;8.642;2023-03-01T01:18:06;2.78;;;1.88;;
16403;SDS011;8311;50.158;8.642;2023-03-01T01:21:03;3.10;;;1.80;;
16403;SDS011;8311;50.158;8.642;2023-03-01T01:23:57;3.00;;;1.88;;
16403;SDS011;8311;50.158;8.642;2023-03-01T01:26:51;3.55;;;2.28;;
16403;SDS011;8311;50.158;8.642;2023-03-01T01:29:45;3.30;;;2.10;;
16403;SDS011;8311;50.158;8.642;2023-03-01T01:32:37;4.47;;;2.20;;
16403;SDS011;8311;50.158;8.642;2023-03-01T01:35:32;3.25;;;2.05;;
16403;SDS011;8311;50.158;8.642;2023-03-01T01:38:26;3.35;;;1.98;;
16403;SDS011;8311;50.158;8.642;2023-03-01T01:41:20;4.95;;;2.30;;
16403;SDS011;8311;50.158;8.642;2023-03-01T01:44:16;3.30;;;1.75;;
16403;SDS011;8311;50.158;8.642;2023-03-01T01:47:13;3.40;;;1.67;;
16403;SDS011;8311;50.158;8.642;2023-03-01T01:50:09;3.70;;;1.98;;
16403;SDS011;8311;50.158;8.642;2023-03-01T01:53:12;3.00;;;1.80;;
16403;SDS011;8311;50.158;8.642;2023-03-01T01:56:08;3.05;;;1.83;;
16403;SDS011;8311;50.158;8.642;2023-03-01T01:59:05;2.75;;;1.83;;
16403;SDS011;8311;50.158;8.642;2023-03-01T02:01:59;4.20;;;2.50;;
16403;SDS011;8311;50.158;8.642;2023-03-01T02:04:56;3.15;;;1.95;;
16403;SDS011;8311;50.158;8.642;2023-03-01T02:07:55;2.53;;;1.75;;
16403;SDS011;8311;50.158;8.642;2023-03-01T02:10:52;2.63;;;1.75;;
16403;SDS011;8311;50.158;8.642;2023-03-01T02:13:47;3.38;;;2.13;;
16403;SDS011;8311;50.158;8.642;2023-03-01T02:16:40;2.13;;;1.55;;
16403;SDS011;8311;50.158;8.642;2023-03-01T02:19:39;2.75;;;1.92;;
16403;SDS011;8311;50.158;8.642;2023-03-01T02:22:39;4.50;;;2.03;;
16403;SDS011;8311;50.158;8.642;2023-03-01T02:25:38;2.60;;;1.80;;
16403;SDS011;8311;50.158;8.642;2023-03-01T02:28:40;2.92;;;1.83;;
16403;SDS011;8311;50.158;8.642;2023-03-01T02:31:35;2.75;;;1.90;;
16403;SDS011;8311;50.158;8.642;2023-03-01T02:34:34;2.85;;;1.63;;
16403;SDS011;8311;50.158;8.642;2023-03-01T02:37:29;3.35;;;1.85;;
16403;SDS011;8311;50.158;8.642;2023-03-01T02:40:22;2.42;;;1.73;;
16403;SDS011;8311;50.158;8.642;2023-03-01T02:43:17;2.15;;;1.65;;
16403;SDS011;8311;50.158;8.642;2023-03-01T02:46:15;2.72;;;1.80;;
16403;SDS011;8311;50.158;8.642;2023-03-01T02:49:18;1.98;;;1.52;;
16403;SDS011;8311;50.158;8.642;2023-03-01T02:52:21;2.40;;;1.75;;
16403;SDS011;8311;50.158;8.642;2023-03-01T02:55:23;2.85;;;2.00;;
16403;SDS011;8311;50.158;8.642;2023-03-01T02:58:16;3.20;;;2.03;;
16403;SDS011;8311;50.158;8.642;2023-03-01T03:01:10;1.58;;;1.40;;
16403;SDS011;8311;50.158;8.642;2023-03-01T03:04:05;2.35;;;1.70;;
16403;SDS011;8311;50.158;8.642;2023-03-01T03:06:59;2.72;;;1.67;;
16403;SDS011;8311;50.158;8.642;2023-03-01T03:09:53;2.67;;;1.77;;
16403;SDS011;8311;50.158;8.642;2023-03-01T03:12:48;3.42;;;1.80;;
16403;SDS011;8311;50.158;8.642;2023-03-01T03:15:43;2.97;;;1.90;;
16403;SDS011;8311;50.158;8.642;2023-03-01T03:18:36;3.13;;;1.80;;
16403;SDS011;8311;50.158;8.642;2023-03-01T03:21:31;2.92;;;1.73;;
16403;SDS011;8311;50.158;8.642;2023-03-01T03:24:24;2.30;;;1.65;;
16403;SDS011;8311;50.158;8.642;2023-03-01T03:27:19;2.92;;;1.98;;
16403;SDS011;8311;50.158;8.642;2023-03-01T03:30:13;2.83;;;1.70;;
16403;SDS011;8311;50.158;8.642;2023-03-01T03:33:08;2.55;;;1.85;;
16403;SDS011;8311;50.158;8.642;2023-03-01T03:36:04;3.13;;;2.05;;
16403;SDS011;8311;50.158;8.642;2023-03-01T03:38:59;3.55;;;1.63;;
16403;SDS011;8311;50.158;8.642;2023-03-01T03:41:53;2.70;;;1.80;;
16403;SDS011;8311;50.158;8.642;2023-03-01T03:44:46;2.50;;;1.70;;
16403;SDS011;8311;50.158;8.642;2023-03-01T03:47:40;3.33;;;2.05;;
16403;SDS011;8311;50.158;8.642;2023-03-01T03:50:34;2.95;;;1.83;;
16403;SDS011;8311;50.158;8.642;2023-03-01T03:53:28;2.67;;;1.80;;
16403;SDS011;8311;50.158;8.642;2023-03-01T03:56:23;2.90;;;1.60;;
16403;SDS011;8311;50.158;8.642;2023-03-01T03:59:18;3.05;;;1.85;;
16403;SDS011;8311;50.158;8.642;2023-03-01T04:02:12;2.28;;;1.70;;
16403;SDS011;8311;50.158;8.642;2023-03-01T04:05:14;2.70;;;1.73;;
16403;SDS011;8311;50.158;8.642;2023-03-01T04:08:09;3.05;;;1.83;;
16403;SDS011;8311;50.158;8.642;2023-03-01T04:11:03;3.35;;;2.17;;
16403;SDS011;8311;50.158;8.642;2023-03-01T04:14:13;2.95;;;1.65;;
16403;SDS011;8311;50.158;8.642;2023-03-01T04:17:06;3.00;;;1.90;;
16403;SDS011;8311;50.158;8.642;2023-03-01T04:19:58;2.35;;;1.40;;
16403;SDS011;8311;50.158;8.642;2023-03-01T04:22:57;2.88;;;1.90;;
16403;SDS011;8311;50.158;8.642;2023-03-01T04:26:00;2.80;;;1.65;;
16403;SDS011;8311;50.158;8.642;2023-03-01T04:28:53;2.65;;;1.60;;
16403;SDS011;8311;50.158;8.642;2023-03-01T04:31:48;2.47;;;1.48;;
16403;SDS011;8311;50.158;8.642;2023-03-01T04:34:42;2.80;;;1.80;;
16403;SDS011;8311;50.158;8.642;2023-03-01T04:37:34;2.38;;;1.52;;
16403;SDS011;8311;50.158;8.642;2023-03-01T04:40:27;2.70;;;1.73;;
16403;SDS011;8311;50.158;8.642;2023-03-01T04:43:20;3.13;;;2.03;;
16403;SDS011;8311;50.158;8.642;2023-03-01T04:46:15;2.65;;;1.88;;
16403;SDS011;8311;50.158;8.642;2023-03-01T04:49:11;2.97;;;1.90;;
16403;SDS011;8311;50.158;8.642;2023-03-01T04:52:05;2.58;;;1.75;;
16403;SDS011;8311;50.158;8.642;2023-03-01T04:54:59;2.92;;;1.77;;
16403;SDS011;8311;50.158;8.642;2023-03-01T04:57:52;2.58;;;1.67;;
16403;SDS011;8311;50.158;8.642;2023-03-01T05:00:46;3.15;;;1.90;;
16403;SDS011;8311;50.158;8.642;2023-03-01T05:03:39;2.97;;;1.52;;
16403;SDS011;8311;50.158;8.642;2023-03-01T05:06:35;2.60;;;1.67;;
16403;SDS011;8311;50.158;8.642;2023-03-01T05:09:28;2.17;;;1.45;;
16403;SDS011;8311;50.158;8.642;2023-03-01T05:12:21;2.00;;;1.40;;
16403;SDS011;8311;50.158;8.642;2023-03-01T05:15:14;2.80;;;1.50;;
16403;SDS011;8311;50.158;8.642;2023-03-01T05:18:06;2.38;;;1.73;;
16403;SDS011;8311;50.158;8.642;2023-03-01T05:21:03;2.63;;;1.63;;
16403;SDS011;8311;50.158;8.642;2023-03-01T05:23:59;2.97;;;1.67;;
16403;SDS011;8311;50.158;8.642;2023-03-01T05:26:52;2.70;;;1.45;;
16403;SDS011;8311;50.158;8.642;2023-03-01T05:29:46;2.88;;;1.65;;
16403;SDS011;8311;50.158;8.642;2023-03-01T05:32:40;3.22;;;1.77;;
16403;SDS011;8311;50.158;8.642;2023-03-01T05:35:36;2.47;;;1.42;;
16403;SDS011;8311;50.158;8.642;2023-03-01T05:38:28;2.53;;;1.52;;
16403;SDS011;8311;50.158;8.642;2023-03-01T05:41:23;2.70;;;1.42;;
16403;SDS011;8311;50.158;8.642;2023-03-01T05:44:17;2.05;;;1.30;;
16403;SDS011;8311;50.158;8.642;2023-03-01T05:47:11;3.33;;;1.83;;
16403;SDS011;8311;50.158;8.642;2023-03-01T05:50:05;2.08;;;1.33;;
16403;SDS011;8311;50.158;8.642;2023-03-01T05:52:59;3.65;;;1.80;;
16403;SDS011;8311;50.158;8.642;2023-03-01T05:55:54;2.38;;;1.58;;
16403;SDS011;8311;50.158;8.642;2023-03-01T05:58:48;2.35;;;1.65;;
16403;SDS011;8311;50.158;8.642;2023-03-01T06:01:41;2.75;;;1.70;;
16403;SDS011;8311;50.158;8.642;2023-03-01T06:04:35;2.08;;;1.45;;
16403;SDS011;8311;50.158;8.642;2023-03-01T06:07:29;2.28;;;1.58;;
16403;SDS011;8311;50.158;8.642;2023-03-01T06:10:22;2.53;;;1.50;;
16403;SDS011;8311;50.158;8.642;2023-03-01T06:13:15;2.67;;;1.88;;
16403;SDS011;8311;50.158;8.642;2023-03-01T06:16:10;3.00;;;1.73;;
16403;SDS011;8311;50.158;8.642;2023-03-01T06:19:03;2.38;;;1.63;;
16403;SDS011;8311;50.158;8.642;2023-03-01T06:21:57;2.38;;;1.40;;
16403;SDS011;8311;50.158;8.642;2023-03-01T06:24:50;2.22;;;1.58;;
16403;SDS011;8311;50.158;8.642;2023-03-01T06:27:43;2.22;;;1.60;;
16403;SDS011;8311;50.158;8.642;2023-03-01T06:30:37;2.70;;;1.70;;
16403;SDS011;8311;50.158;8.642;2023-03-01T06:33:31;2.63;;;1.80;;
16403;SDS011;8311;50.158;8.642;2023-03-01T06:36:25;2.40;;;1.60;;
16403;SDS011;8311;50.158;8.642;2023-03-01T06:39:18;2.85;;;1.90;;
16403;SDS011;8311;50.158;8.642;2023-03-01T06:42:11;3.35;;;1.88;;
16403;SDS011;8311;50.158;8.642;2023-03-01T06:45:04;2.25;;;1.50;;
16403;SDS011;8311;50.158;8.642;2023-03-01T06:48:02;2.35;;;1.60;;
16403;SDS011;8311;50.158;8.642;2023-03-01T06:50:59;3.10;;;1.70;;
16403;SDS011;8311;50.158;8.642;2023-03-01T06:53:53;2.92;;;1.58;;
16403;SDS011;8311;50.158;8.642;2023-03-01T06:56:46;2.45;;;1.67;;
16403;SDS011;8311;50.158;8.642;2023-03-01T06:59:40;2.53;;;1.50;;
16403;SDS011;8311;50.158;8.642;2023-03-01T07:02:32;2.92;;;1.80;;
16403;SDS011;8311;50.158;8.642;2023-03-01T07:05:26;2.72;;;1.42;;
16403;SDS011;8311;50.158;8.642;2023-03-01T07:08:20;2.63;;;1.60;;
16403;SDS011;8311;50.158;8.642;2023-03-01T07:11:14;8.68;;;2.72;;
16403;SDS011;8311;50.158;8.642;2023-03-01T07:14:07;13.73;;;10.90;;
16403;SDS011;8311;50.158;8.642;2023-03-01T07:17:01;14.88;;;11.85;;
16403;SDS011;8311;50.158;8.642;2023-03-01T07:19:54;11.82;;;6.60;;
16403;SDS011;8311;50.158;8.642;2023-03-01T07:22:47;11.10;;;6.95;;
16403;SDS011;8311;50.158;8.642;2023-03-01T07:25:41;9.15;;;6.50;;
16403;SDS011;8311;50.158;8.642;2023-03-01T07:28:35;9.43;;;5.93;;
16403;SDS011;8311;50.158;8.642;2023-03-01T07:31:30;10.18;;;5.90;;
16403;SDS011;8311;50.158;8.642;2023-03-01T07:34:24;9.23;;;4.72;;
16403;SDS011;8311;50.158;8.642;2023-03-01T07:37:18;7.38;;;4.82;;
16403;SDS011;8311;50.158;8.642;2023-03-01T07:40:12;8.27;;;5.15;;
16403;SDS011;8311;50.158;8.642;2023-03-01T07:43:07;8.07;;;4.25;;
16403;SDS011;8311;50.158;8.642;2023-03-01T07:46:01;8.05;;;4.75;;
16403;SDS011;8311;50.158;8.642;2023-03-01T07:48:55;8.98;;;4.43;;
16403;SDS011;8311;50.158;8.642;2023-03-01T07:51:49;5.25;;;3.72;;
16403;SDS011;8311;50.158;8.642;2023-03-01T07:54:42;5.93;;;4.03;;
16403;SDS011;8311;50.158;8.642;2023-03-01T07:57:36;6.45;;;3.58;;
16403;SDS011;8311;50.158;8.642;2023-03-01T08:00:32;9.35;;;3.90;;
16403;SDS011;8311;50.158;8.642;2023-03-01T08:03:24;6.25;;;3.67;;
16403;SDS011;8311;50.158;8.642;2023-03-01T08:06:18;6.00;;;3.50;;
16403;SDS011;8311;50.158;8.642;2023-03-01T08:09:11;6.80;;;3.63;;
16403;SDS011;8311;50.158;8.642;2023-03-01T08:12:04;7.47;;;3.60;;
16403;SDS011;8311;50.158;8.642;2023-03-01T08:14:59;6.10;;;3.83;;
16403;SDS011;8311;50.158;8.642;2023-03-01T08:17:53;5.45;;;3.53;;
16403;SDS011;8311;50.158;8.642;2023-03-01T08:20:47;5.70;;;3.45;;
16403;SDS011;8311;50.158;8.642;2023-03-01T08:23:40;6.05;;;3.85;;
16403;SDS011;8311;50.158;8.642;2023-03-01T08:26:34;7.10;;;4.03;;
16403;SDS011;8311;50.158;8.642;2023-03-01T08:29:27;6.55;;;3.72;;
16403;SDS011;8311;50.158;8.642;2023-03-01T08:32:20;5.80;;;3.35;;
16403;SDS011;8311;50.158;8.642;2023-03-01T08:35:15;5.88;;;3.70;;
16403;SDS011;8311;50.158;8.642;2023-03-01T08:38:09;5.88;;;3.67;;
16403;SDS011;8311;50.158;8.642;2023-03-01T08:41:03;6.25;;;3.45;;
16403;SDS011;8311;50.158;8.642;2023-03-01T08:43:57;7.35;;;3.75;;
16403;SDS011;8311;50.158;8.642;2023-03-01T08:46:51;6.63;;;3.28;;
16403;SDS011;8311;50.158;8.642;2023-03-01T08:49:46;6.07;;;3.22;;
16403;SDS011;8311;50.158;8.642;2023-03-01T08:52:40;7.60;;;3.33;;
16403;SDS011;8311;50.158;8.642;2023-03-01T08:55:34;5.78;;;3.53;;
16403;SDS011;8311;50.158;8.642;2023-03-01T08:58:27;6.60;;;3.97;;
16403;SDS011;8311;50.158;8.642;2023-03-01T09:01:20;6.68;;;3.17;;
16403;SDS011;8311;50.158;8.642;2023-03-01T09:04:14;7.03;;;3.67;;
16403;SDS011;8311;50.158;8.642;2023-03-01T09:07:08;5.32;;;3.15;;
16403;SDS011;8311;50.158;8.642;2023-03-01T09:10:04;6.40;;;3.38;;
16403;SDS011;8311;50.158;8.642;2023-03-01T09:12:58;6.57;;;3.05;;
16403;SDS011;8311;50.158;8.642;2023-03-01T09:15:51;5.60;;;3.55;;
16403;SDS011;8311;50.158;8.642;2023-03-01T09:18:44;6.97;;;3.53;;
16403;SDS011;8311;50.158;8.642;2023-03-01T09:21:38;6.25;;;3.10;;
16403;SDS011;8311;50.158;8.642;2023-03-01T09:24:32;7.25;;;3.45;;
16403;SDS011;8311;50.158;8.642;2023-03-01T09:27:26;5.18;;;3.20;;
16403;SDS011;8311;50.158;8.642;2023-03-01T09:30:20;5.05;;;3.25;;
16403;SDS011;8311;50.158;8.642;2023-03-01T09:33:14;6.03;;;3.40;;
16403;SDS011;8311;50.158;8.642;2023-03-01T09:36:08;6.38;;;3.20;;
16403;SDS011;8311;50.158;8.642;2023-03-01T09:39:03;6.65;;;3.40;;
16403;SDS011;8311;50.158;8.642;2023-03-01T09:41:58;8.02;;;3.70;;
16403;SDS011;8311;50.158;8.642;2023-03-01T09:44:56;7.88;;;3.10;;
16403;SDS011;8311;50.158;8.642;2023-03-01T09:47:53;7.13;;;3.20;;
16403;SDS011;8311;50.158;8.642;2023-03-01T09:50:48;4.95;;;2.97;;
16403;SDS011;8311;50.158;8.642;2023-03-01T09:53:41;6.07;;;3.47;;
16403;SDS011;8311;50.158;8.642;2023-03-01T09:56:36;6.40;;;3.47;;
16403;SDS011;8311;50.158;8.642;2023-03-01T09:59:37;5.82;;;3.60;;
16403;SDS011;8311;50.158;8.642;2023-03-01T10:02:43;6.05;;;3.00;;
16403;SDS011;8311;50.158;8.642;2023-03-01T10:05:41;5.50;;;3.28;;
16403;SDS011;8311;50.158;8.642;2023-03-01T10:08:42;6.07;;;3.10;;
16403;SDS011;8311;50.158;8.642;2023-03-01T10:11:44;6.95;;;3.60;;
16403;SDS011;8311;50.158;8.642;2023-03-01T10:14:43;6.88;;;3.53;;
16403;SDS011;8311;50.158;8.642;2023-03-01T10:17:46;6.35;;;3.30;;
16403;SDS011;8311;50.158;8.642;2023-03-01T10:20:45;5.80;;;3.10;;
16403;SDS011;8311;50.158;8.642;2023-03-01T10:23:44;5.38;;;3.10;;
16403;SDS011;8311;50.158;8.642;2023-03-01T10:26:41;6.32;;;3.35;;
16403;SDS011;8311;50.158;8.642;2023-03-01T10:29:39;5.75;;;3.20;;
16403;SDS011;8311;50.158;8.642;2023-03-01T10:32:39;5.63;;;3.15;;
16403;SDS011;8311;50.158;8.642;2023-03-01T10:35:33;5.28;;;3.00;;
16403;SDS011;8311;50.158;8.642;2023-03-01T10:38:27;5.57;;;3.35;;
16403;SDS011;8311;50.158;8.642;2023-03-01T10:41:44;4.32;;;2.65;;
16403;SDS011;8311;50.158;8.642;2023-03-01T10:44:46;5.00;;;3.00;;
16403;SDS011;8311;50.158;8.642;2023-03-01T10:47:41;5.95;;;3.25;;
16403;SDS011;8311;50.158;8.642;2023-03-01T10:50:36;5.22;;;2.90;;
16403;SDS011;8311;50.158;8.642;2023-03-01T10:53:33;5.63;;;3.00;;
16403;SDS011;8311;50.158;8.642;2023-03-01T10:56:28;6.13;;;3.22;;
16403;SDS011;8311;50.158;8.642;2023-03-01T10:59:27;4.55;;;2.97;;
16403;SDS011;8311;50.158;8.642;2023-03-01T11:02:22;6.05;;;3.13;;
16403;SDS011;8311;50.158;8.642;2023-03-01T11:05:22;4.70;;;2.80;;
16403;SDS011;8311;50.158;8.642;2023-03-01T11:08:30;5.75;;;3.15;;
16403;SDS011;8311;50.158;8.642;2023-03-01T11:11:31;5.20;;;2.97;;
16403;SDS011;8311;50.158;8.642;2023-03-01T11:14:27;5.53;;;3.00;;
16403;SDS011;8311;50.158;8.642;2023-03-01T11:17:23;5.43;;;3.00;;
16403;SDS011;8311;50.158;8.642;2023-03-01T11:20:27;6.97;;;3.20;;
16403;SDS011;8311;50.158;8.642;2023-03-01T11:23:23;6.10;;;3.05;;
16403;SDS011;8311;50.158;8.642;2023-03-01T11:26:20;5.40;;;2.75;;
16403;SDS011;8311;50.158;8.642;2023-03-01T11:29:17;5.30;;;2.95;;
16403;SDS011;8311;50.158;8.642;2023-03-01T11:32:32;6.35;;;3.03;;
16403;SDS011;8311;50.158;8.642;2023-03-01T11:35:33;5.20;;;2.80;;
16403;SDS011;8311;50.158;8.642;2023-03-01T11:38:30;4.75;;;2.80;;
16403;SDS011;8311;50.158;8.642;2023-03-01T11:41:30;5.20;;;2.97;;
16403;SDS011;8311;50.158;8.642;2023-03-01T11:44:26;5.22;;;3.08;;
16403;SDS011;8311;50.158;8.642;2023-03-01T11:47:28;4.68;;;2.92;;
16403;SDS011;8311;50.158;8.642;2023-03-01T11:50:33;5.53;;;3.08;;
16403;SDS011;8311;50.158;8.642;2023-03-01T11:53:41;5.50;;;2.55;;
16403;SDS011;8311;50.158;8.642;2023-03-01T11:56:45;5.88;;;3.20;;
16403;SDS011;8311;50.158;8.642;2023-03-01T11:59:52;5.95;;;2.72;;
16403;SDS011;8311;50.158;8.642;2023-03-01T12:03:08;7.60;;;3.20;;
16403;SDS011;8311;50.158;8.642;2023-03-01T12:09:57;4.15;;;2.72;;
16403;SDS011;8311;50.158;8.642;2023-03-01T12:16:33;4.78;;;2.75;;
16403;SDS011;8311;50.158;8.642;2023-03-01T12:19:58;5.07;;;2.80;;
16403;SDS011;8311;50.158;8.642;2023-03-01T12:23:16;5.70;;;3.03;;
16403;SDS011;8311;50.158;8.642;2023-03-01T12:26:24;4.78;;;2.55;;
16403;SDS011;8311;50.158;8.642;2023-03-01T12:29:25;4.55;;;2.65;;
16403;SDS011;8311;50.158;8.642;2023-03-01T12:32:26;5.53;;;2.80;;
16403;SDS011;8311;50.158;8.642;2023-03-01T12:35:36;4.65;;;2.70;;
16403;SDS011;8311;50.158;8.642;2023-03-01T12:38:45;5.07;;;3.13;;
16403;SDS011;8311;50.158;8.642;2023-03-01T12:41:46;4.53;;;2.72;;
16403;SDS011;8311;50.158;8.642;2023-03-01T12:44:49;3.75;;;2.30;;
16403;SDS011;8311;50.158;8.642;2023-03-01T12:47:58;5.22;;;2.70;;
16403;SDS011;8311;50.158;8.642;2023-03-01T12:51:04;4.85;;;2.83;;
16403;SDS011;8311;50.158;8.642;2023-03-01T12:54:05;4.55;;;3.10;;
16403;SDS011;8311;50.158;8.642;2023-03-01T12:57:08;5.68;;;2.95;;
16403;SDS011;8311;50.158;8.642;2023-03-01T13:00:15;5.28;;;3.38;;
16403;SDS011;8311;50.158;8.642;2023-03-01T13:04:02;5.35;;;3.00;;
16403;SDS011;8311;50.158;8.642;2023-03-01T13:07:25;3.35;;;2.47;;
16403;SDS011;8311;50.158;8.642;2023-03-01T13:10:26;4.05;;;2.80;;
16403;SDS011;8311;50.158;8.642;2023-03-01T13:13:26;5.13;;;2.78;;
16403;SDS011;8311;50.158;8.642;2023-03-01T13:16:27;4.28;;;2.50;;
16403;SDS011;8311;50.158;8.642;2023-03-01T13:19:34;4.32;;;2.80;;
16403;SDS011;8311;50.158;8.642;2023-03-01T13:22:31;5.30;;;3.08;;
16403;SDS011;8311;50.158;8.642;2023-03-01T13:26:00;3.90;;;2.65;;
16403;SDS011;8311;50.158;8.642;2023-03-01T13:28:56;5.38;;;3.10;;
16403;SDS011;8311;50.158;8.642;2023-03-01T13:34:57;5.40;;;2.83;;
16403;SDS011;8311;50.158;8.642;2023-03-01T13:37:51;4.85;;;2.90;;
16403;SDS011;8311;50.158;8.642;2023-03-01T13:40:57;4.65;;;2.47;;
16403;SDS011;8311;50.158;8.642;2023-03-01T13:43:52;4.80;;;2.95;;
16403;SDS011;8311;50.158;8.642;2023-03-01T13:46:46;4.55;;;2.55;;
16403;SDS011;8311;50.158;8.642;2023-03-01T13:49:43;6.50;;;2.75;;
16403;SDS011;8311;50.158;8.642;2023-03-01T13:52:40;4.72;;;2.42;;
16403;SDS011;8311;50.158;8.642;2023-03-01T13:55:36;4.25;;;2.60;;
16403;SDS011;8311;50.158;8.642;2023-03-01T13:58:43;4.18;;;2.45;;
16403;SDS011;8311;50.158;8.642;2023-03-01T14:01:40;4.90;;;2.50;;
16403;SDS011;8311;50.158;8.642;2023-03-01T14:04:34;4.32;;;2.67;;
16403;SDS011;8311;50.158;8.642;2023-03-01T14:07:30;6.93;;;3.28;;
16403;SDS011;8311;50.158;8.642;2023-03-01T14:10:23;4.95;;;3.05;;
16403;SDS011;8311;50.158;8.642;2023-03-01T14:13:25;3.63;;;2.53;;
16403;SDS011;8311;50.158;8.642;2023-03-01T14:16:30;3.95;;;2.67;;
16403;SDS011;8311;50.158;8.642;2023-03-01T14:19:31;4.55;;;2.47;;
16403;SDS011;8311;50.158;8.642;2023-03-01T14:22:26;4.35;;;2.58;;
16403;SDS011;8311;50.158;8.642;2023-03-01T14:25:24;4.30;;;2.42;;
16403;SDS011;8311;50.158;8.642;2023-03-01T14:28:21;4.28;;;2.40;;
16403;SDS011;8311;50.158;8.642;2023-03-01T14:31:31;4.85;;;2.60;;
16403;SDS011;8311;50.158;8.642;2023-03-01T14:34:43;5.13;;;2.70;;
16403;SDS011;8311;50.158;8.642;2023-03-01T14:37:39;4.65;;;2.50;;
16403;SDS011;8311;50.158;8.642;2023-03-01T14:40:35;3.53;;;2.40;;
16403;SDS011;8311;50.158;8.642;2023-03-01T14:43:29;5.50;;;2.53;;
16403;SDS011;8311;50.158;8.642;2023-03-01T14:46:24;3.38;;;2.20;;
16403;SDS011;8311;50.158;8.642;2023-03-01T14:49:22;3.47;;;2.13;;
16403;SDS011;8311;50.158;8.642;2023-03-01T14:52:20;6.47;;;2.80;;
16403;SDS011;8311;50.158;8.642;2023-03-01T14:55:16;4.55;;;2.63;;
16403;SDS011;8311;50.158;8.642;2023-03-01T14:58:13;5.15;;;2.95;;
16403;SDS011;8311;50.158;8.642;2023-03-01T15:01:10;4.50;;;2.80;;
16403;SDS011;8311;50.158;8.642;2023-03-01T15:04:10;4.38;;;2.53;;
16403;SDS011;8311;50.158;8.642;2023-03-01T15:07:09;5.38;;;3.10;;
16403;SDS011;8311;50.158;8.642;2023-03-01T15:10:06;5.15;;;2.80;;
16403;SDS011;8311;50.158;8.642;2023-03-01T15:13:10;5.05;;;2.70;;
16403;SDS011;8311;50.158;8.642;2023-03-01T15:16:06;4.38;;;2.60;;
16403;SDS011;8311;50.158;8.642;2023-03-01T15:19:02;5.50;;;2.58;;
16403;SDS011;8311;50.158;8.642;2023-03-01T15:21:57;4.97;;;2.58;;
16403;SDS011;8311;50.158;8.642;2023-03-01T15:24:50;5.20;;;2.90;;
16403;SDS011;8311;50.158;8.642;2023-03-01T15:27:45;4.45;;;2.67;;
16403;SDS011;8311;50.158;8.642;2023-03-01T15:30:39;3.65;;;2.35;;
16403;SDS011;8311;50.158;8.642;2023-03-01T15:33:35;4.50;;;2.78;;
16403;SDS011;8311;50.158;8.642;2023-03-01T15:36:31;5.20;;;3.03;;
16403;SDS011;8311;50.158;8.642;2023-03-01T15:39:32;4.05;;;2.65;;
16403;SDS011;8311;50.158;8.642;2023-03-01T15:42:37;4.82;;;2.35;;
16403;SDS011;8311;50.158;8.642;2023-03-01T15:45:31;6.93;;;2.80;;
16403;SDS011;8311;50.158;8.642;2023-03-01T15:48:30;5.78;;;2.60;;
16403;SDS011;8311;50.158;8.642;2023-03-01T15:51:27;3.90;;;2.42;;
16403;SDS011;8311;50.158;8.642;2023-03-01T15:54:24;5.35;;;2.88;;
16403;SDS011;8311;50.158;8.642;2023-03-01T15:57:19;3.55;;;2.40;;
16403;SDS011;8311;50.158;8.642;2023-03-01T16:00:13;4.57;;;2.65;;
16403;SDS011;8311;50.158;8.642;2023-03-01T16:03:08;3.40;;;2.20;;
16403;SDS011;8311;50.158;8.642;2023-03-01T16:06:07;5.00;;;2.58;;
16403;SDS011;8311;50.158;8.642;2023-03-01T16:09:01;4.32;;;2.60;;
16403;SDS011;8311;50.158;8.642;2023-03-01T16:11:54;5.50;;;2.67;;
16403;SDS011;8311;50.158;8.642;2023-03-01T16:14:48;4.45;;;2.38;;
16403;SDS011;8311;50.158;8.642;2023-03-01T16:17:41;4.13;;;2.65;;
16403;SDS011;8311;50.158;8.642;2023-03-01T16:20:35;4.18;;;2.35;;
16403;SDS011;8311;50.158;8.642;2023-03-01T16:23:29;4.07;;;2.47;;
16403;SDS011;8311;50.158;8.642;2023-03-01T16:26:22;4.05;;;2.45;;
16403;SDS011;8311;50.158;8.642;2023-03-01T16:29:15;3.63;;;2.13;;
16403;SDS011;8311;50.158;8.642;2023-03-01T16:32:08;4.28;;;2.42;;
16403;SDS011;8311;50.158;8.642;2023-03-01T16:35:02;4.30;;;2.55;;
16403;SDS011;8311;50.158;8.642;2023-03-01T16:37:56;5.50;;;2.75;;
16403;SDS011;8311;50.158;8.642;2023-03-01T16:40:53;5.55;;;2.83;;
16403;SDS011;8311;50.158;8.642;2023-03-01T16:43:46;6.28;;;2.90;;
16403;SDS011;8311;50.158;8.642;2023-03-01T16:46:40;4.32;;;2.60;;
16403;SDS011;8311;50.158;8.642;2023-03-01T16:49:35;3.90;;;2.20;;
16403;SDS011;8311;50.158;8.642;2023-03-01T16:52:28;4.57;;;2.47;;
16403;SDS011;8311;50.158;8.642;2023-03-01T16:55:22;4.30;;;2.60;;
16403;SDS011;8311;50.158;8.642;2023-03-01T16:58:18;4.20;;;2.55;;
16403;SDS011;8311;50.158;8.642;2023-03-01T17:01:12;4.22;;;2.15;;
16403;SDS011;8311;50.158;8.642;2023-03-01T17:04:09;3.53;;;2.22;;
16403;SDS011;8311;50.158;8.642;2023-03-01T17:07:03;5.00;;;2.50;;
16403;SDS011;8311;50.158;8.642;2023-03-01T17:09:56;4.28;;;2.45;;
16403;SDS011;8311;50.158;8.642;2023-03-01T17:12:50;4.38;;;2.72;;
16403;SDS011;8311;50.158;8.642;2023-03-01T17:15:49;5.45;;;2.83;;
16403;SDS011;8311;50.158;8.642;2023-03-01T17:18:42;4.35;;;2.67;;
16403;SDS011;8311;50.158;8.642;2023-03-01T17:21:36;4.90;;;2.17;;
16403;SDS011;8311;50.158;8.642;2023-03-01T17:24:31;3.85;;;2.35;;
16403;SDS011;8311;50.158;8.642;2023-03-01T17:27:28;6.63;;;3.17;;
16403;SDS011;8311;50.158;8.642;2023-03-01T17:30:26;9.00;;;6.65;;
16403;SDS011;8311;50.158;8.642;2023-03-01T17:33:21;7.30;;;5.18;;
16403;SDS011;8311;50.158;8.642;2023-03-01T17:36:14;8.05;;;4.82;;
16403;SDS011;8311;50.158;8.642;2023-03-01T17:39:08;5.95;;;3.53;;
16403;SDS011;8311;50.158;8.642;2023-03-01T17:42:02;5.70;;;3.67;;
16403;SDS011;8311;50.158;8.642;2023-03-01T17:44:56;8.18;;;4.25;;
16403;SDS011;8311;50.158;8.642;2023-03-01T17:47:51;5.28;;;3.30;;
16403;SDS011;8311;50.158;8.642;2023-03-01T17:50:46;6.00;;;3.53;;
16403;SDS011;8311;50.158;8.642;2023-03-01T17:53:39;5.22;;;3.20;;
16403;SDS011;8311;50.158;8.642;2023-03-01T17:56:33;6.63;;;3.20;;
16403;SDS011;8311;50.158;8.642;2023-03-01T17:59:29;8.18;;;3.55;;
16403;SDS011;8311;50.158;8.642;2023-03-01T18:02:24;10.68;;;2.88;;
16403;SDS011;8311;50.158;8.642;2023-03-01T18:05:17;4.97;;;2.92;;
16403;SDS011;8311;50.158;8.642;2023-03-01T18:08:12;6.97;;;3.05;;
16403;SDS011;8311;50.158;8.642;2023-03-01T18:11:08;5.35;;;2.65;;